createdAt,value
2022-10-19T00:00:34.633Z,1027
2022-10-19T00:30:42.043Z,1026
2022-10-19T01:00:49.416Z,1027
2022-10-19T01:30:56.626Z,1027
2022-10-19T02:01:04.529Z,1026
2022-10-19T02:31:16.663Z,1026
2022-10-19T03:31:33.544Z,1026
2022-10-19T04:01:43.136Z,1026
2022-10-19T04:32:53.516Z,1026
2022-10-19T05:02:54.318Z,1026
2022-10-19T05:33:05.195Z,1026
2022-10-19T06:03:12.488Z,1026
2022-10-19T06:33:24.591Z,1026
2022-10-19T07:03:37.578Z,1026
2022-10-19T07:33:45.634Z,1026
2022-10-19T08:03:57.167Z,1026
2022-10-19T08:34:10.480Z,1026
2022-10-19T09:34:35.776Z,1025
2022-10-19T10:05:55.679Z,1025
2022-10-19T10:37:05.891Z,1025
2022-10-19T11:07:09.192Z,1025
2022-10-19T11:37:19.347Z,1024
2022-10-19T12:07:27.569Z,1024
2022-10-19T12:37:42.761Z,1023
2022-10-19T13:07:55.936Z,1023
2022-10-19T13:38:03.145Z,1022
2022-10-19T14:45:04.567Z,1022
2022-10-19T15:46:13.739Z,1021
2022-10-19T16:16:18.627Z,1021
2022-10-19T16:46:30.741Z,1021
2022-10-19T17:16:39.836Z,1021
2022-10-19T17:46:52.103Z,1021
2022-10-19T18:16:57.223Z,1022
2022-10-19T18:47:10.417Z,1021
2022-10-19T19:18:24.099Z,1021
2022-10-19T19:49:30.834Z,1021
2022-10-19T20:49:39.266Z,1021
2022-10-19T21:19:46.244Z,1021
2022-10-19T21:49:57.354Z,1021
2022-10-19T22:20:09.107Z,1020
2022-10-19T22:50:20.501Z,1020
2022-10-19T23:20:32.387Z,1020
2022-10-19T23:50:43.159Z,1020
